Time;durP1;ratioP1;P1;durP2;ratioP2;P2;SDS_P1;SDS_P2;PMS_P1;PMS_P2;Temp;Humidity;BMP_temperature;BMP_pressure;BME280_temperature;BME280_humidity;BME280_pressure;Samples;Min_cycle;Max_cycle;Signal;HPM_P1;HPM_P2
2021/04/22 00:00:23;;;;;;;13.60;12.20;;;10.70;99.90;;;;;;5053393;28;20416;-77
2021/04/22 00:02:49;;;;;;;13.53;12.20;;;10.70;99.90;;;;;;5053608;28;20172;-76
2021/04/22 00:05:33;;;;;;;14.30;13.00;;;10.80;99.90;;;;;;5053582;28;20916;-76
2021/04/22 00:07:59;;;;;;;16.00;14.13;;;10.90;99.90;;;;;;5053682;28;20418;-76
2021/04/22 00:10:35;;;;;;;14.50;12.47;;;10.90;99.90;;;;;;5052092;28;20437;-76
2021/04/22 00:13:01;;;;;;;17.43;13.23;;;10.80;99.90;;;;;;5051999;28;20503;-76
2021/04/22 00:15:27;;;;;;;15.10;13.60;;;10.50;99.90;;;;;;5051911;28;20871;-76
2021/04/22 00:17:55;;;;;;;16.47;14.40;;;10.30;99.90;;;;;;5053381;28;20215;-76
2021/04/22 00:20:21;;;;;;;17.53;15.73;;;10.30;99.90;;;;;;5053383;28;20518;-76
2021/04/22 00:22:47;;;;;;;22.93;17.57;;;10.40;99.90;;;;;;5051899;28;20435;-76
2021/04/22 00:25:13;;;;;;;25.57;22.40;;;10.30;99.90;;;;;;5053392;28;20988;-76
2021/04/22 00:27:39;;;;;;;29.60;25.00;;;10.50;99.90;;;;;;5052239;28;20735;-75
2021/04/22 00:30:08;;;;;;;27.97;23.77;;;10.60;99.90;;;;;;5053223;28;20422;-76
2021/04/22 00:32:34;;;;;;;31.20;26.80;;;10.60;99.90;;;;;;5053461;28;20627;-75
2021/04/22 00:35:00;;;;;;;29.13;26.23;;;10.60;99.90;;;;;;5053132;28;20468;-76
2021/04/22 00:37:25;;;;;;;30.60;26.57;;;10.60;99.90;;;;;;5051900;28;20220;-76
2021/04/22 00:39:51;;;;;;;31.10;27.83;;;10.60;99.90;;;;;;5052681;28;20226;-76
2021/04/22 00:42:17;;;;;;;32.87;29.40;;;10.70;99.90;;;;;;5051194;28;20626;-76
2021/04/22 00:44:47;;;;;;;30.00;26.90;;;10.90;99.90;;;;;;5050694;28;20202;-76
2021/04/22 00:47:17;;;;;;;30.07;26.80;;;10.90;99.90;;;;;;5051048;28;20321;-76
2021/04/22 00:49:43;;;;;;;30.87;27.73;;;10.90;99.90;;;;;;5052821;28;20704;-76
2021/04/22 00:52:10;;;;;;;31.07;27.97;;;10.90;99.90;;;;;;5051035;28;20782;-77
2021/04/22 00:54:38;;;;;;;30.90;27.60;;;11.00;99.90;;;;;;5052558;28;20433;-76
2021/04/22 00:57:06;;;;;;;31.77;27.83;;;10.90;99.90;;;;;;5052657;28;20470;-77
2021/04/22 00:59:31;;;;;;;28.87;25.80;;;10.90;99.90;;;;;;5052653;28;20433;-76
2021/04/22 01:01:57;;;;;;;29.63;26.80;;;10.80;99.90;;;;;;5052628;28;20410;-77
2021/04/22 01:04:22;;;;;;;35.20;28.00;;;11.00;99.90;;;;;;5052719;28;20267;-77
2021/04/22 01:06:48;;;;;;;33.20;28.03;;;11.00;99.90;;;;;;5052153;28;20262;-76
2021/04/22 01:09:14;;;;;;;32.87;29.27;;;10.90;99.90;;;;;;5052454;28;20183;-76
2021/04/22 01:11:43;;;;;;;30.40;26.63;;;10.80;99.90;;;;;;5052482;28;20414;-76
2021/04/22 01:14:09;;;;;;;32.30;29.00;;;10.70;99.90;;;;;;5050885;28;20194;-76
2021/04/22 01:16:35;;;;;;;32.07;28.50;;;10.50;99.90;;;;;;5052178;28;20422;-76
2021/04/22 01:19:02;;;;;;;34.10;29.33;;;10.40;99.90;;;;;;5050524;28;20191;-76
2021/04/22 01:21:27;;;;;;;32.70;26.83;;;10.20;99.90;;;;;;5051963;28;20414;-76
2021/04/22 01:23:54;;;;;;;39.60;27.77;;;10.20;99.90;;;;;;5050772;28;20439;-76
2021/04/22 01:26:22;;;;;;;30.10;25.80;;;10.00;99.90;;;;;;5052249;28;20740;-76
2021/04/22 01:28:48;;;;;;;29.63;25.90;;;9.80;99.90;;;;;;5052099;28;20427;-76
2021/04/22 01:31:14;;;;;;;31.83;28.17;;;9.60;99.90;;;;;;5051764;28;20422;-76
2021/04/22 01:33:40;;;;;;;36.10;29.33;;;9.60;99.90;;;;;;5051919;28;20475;-76
2021/04/22 01:36:07;;;;;;;31.37;27.30;;;9.60;99.90;;;;;;5050475;28;20521;-76
2021/04/22 01:38:33;;;;;;;35.43;29.33;;;9.70;99.90;;;;;;5051953;28;20470;-76
2021/04/22 01:40:59;;;;;;;32.50;28.40;;;9.70;99.90;;;;;;5051851;28;20406;-76
2021/04/22 01:43:27;;;;;;;32.43;27.93;;;9.70;99.90;;;;;;5050522;28;20831;-77
2021/04/22 01:45:53;;;;;;;34.33;29.23;;;9.80;99.90;;;;;;5051434;28;20917;-76
2021/04/22 01:48:18;;;;;;;30.90;27.07;;;10.00;99.90;;;;;;5051713;28;20418;-76
2021/04/22 01:50:47;;;;;;;31.40;25.20;;;10.00;99.90;;;;;;5050353;28;20199;-77
2021/04/22 01:53:13;;;;;;;30.53;26.53;;;10.10;99.90;;;;;;5051587;28;20242;-76
2021/04/22 01:55:45;;;;;;;30.50;27.00;;;10.10;99.90;;;;;;5049994;28;20427;-76
2021/04/22 01:58:14;;;;;;;22.47;19.80;;;10.10;99.90;;;;;;5051180;28;20581;-76
2021/04/22 02:00:44;;;;;;;30.10;25.87;;;9.90;99.90;;;;;;5050152;28;20426;-76
2021/04/22 02:03:11;;;;;;;28.87;25.77;;;9.90;99.90;;;;;;5051394;28;20429;-76
2021/04/22 02:05:38;;;;;;;29.47;25.53;;;9.90;99.90;;;;;;5050009;28;20430;-76
2021/04/22 02:08:05;;;;;;;23.57;21.07;;;9.80;99.90;;;;;;5051525;28;20541;-76
2021/04/22 02:10:37;;;;;;;30.10;23.63;;;9.80;99.90;;;;;;5049868;28;20921;-76
2021/04/22 02:13:04;;;;;;;33.90;28.47;;;9.60;99.90;;;;;;5051363;28;20506;-76
2021/04/22 02:15:30;;;;;;;32.10;26.23;;;9.70;99.90;;;;;;5051352;28;20410;-76
2021/04/22 02:17:56;;;;;;;30.77;27.53;;;9.70;99.90;;;;;;5050329;28;20496;-76
2021/04/22 02:20:22;;;;;;;34.03;27.33;;;9.70;99.90;;;;;;5051478;28;20415;-75
2021/04/22 02:22:49;;;;;;;32.50;26.83;;;9.70;99.90;;;;;;5051388;28;20433;-75
2021/04/22 02:25:17;;;;;;;34.27;29.07;;;9.60;99.90;;;;;;5049894;28;20755;-75
2021/04/22 02:27:43;;;;;;;32.60;28.77;;;9.60;99.90;;;;;;5051257;28;20425;-76
2021/04/22 02:30:17;;;;;;;31.97;27.67;;;9.50;99.90;;;;;;5051349;28;20421;-75
2021/04/22 02:32:43;;;;;;;36.07;29.83;;;9.40;99.90;;;;;;5049863;28;20517;-75
2021/04/22 02:35:11;;;;;;;37.33;32.67;;;9.40;99.90;;;;;;5051266;28;20878;-75
2021/04/22 02:37:37;;;;;;;36.83;32.83;;;9.40;99.90;;;;;;5051040;28;20505;-75
2021/04/22 02:40:11;;;;;;;36.20;31.77;;;9.40;99.90;;;;;;5051172;28;20410;-75
2021/04/22 02:42:37;;;;;;;38.50;32.13;;;9.40;99.90;;;;;;5051343;28;20418;-75
2021/04/22 02:45:07;;;;;;;42.93;32.40;;;9.40;99.90;;;;;;5051351;28;20426;-76
2021/04/22 02:47:33;;;;;;;39.23;30.93;;;9.50;99.90;;;;;;5050432;28;20190;-76
2021/04/22 02:49:58;;;;;;;35.13;31.40;;;9.60;99.90;;;;;;5051456;28;20414;-76
2021/04/22 02:52:24;;;;;;;38.03;32.50;;;9.60;99.90;;;;;;5050037;28;20184;-76
2021/04/22 02:54:49;;;;;;;33.53;29.77;;;9.60;99.90;;;;;;5051001;28;20176;-76
2021/04/22 02:57:15;;;;;;;34.10;30.40;;;9.60;99.90;;;;;;5051089;28;20349;-76
2021/04/22 02:59:41;;;;;;;33.93;30.23;;;9.60;99.90;;;;;;5051235;28;20191;-76
2021/04/22 03:02:06;;;;;;;38.00;30.87;;;9.70;99.90;;;;;;5051194;28;20184;-76
2021/04/22 03:04:32;;;;;;;35.10;29.70;;;9.60;99.90;;;;;;5050833;28;20182;-76
2021/04/22 03:06:57;;;;;;;37.90;29.80;;;9.60;99.90;;;;;;5051631;28;20211;-75
2021/04/22 03:09:23;;;;;;;36.27;30.47;;;9.70;99.90;;;;;;5054522;28;20179;-76
2021/04/22 03:11:49;;;;;;;36.57;31.30;;;9.70;99.90;;;;;;5054588;28;20172;-76
2021/04/22 03:14:14;;;;;;;38.47;31.83;;;9.60;99.90;;;;;;5053250;28;20266;-76
2021/04/22 03:16:40;;;;;;;39.53;29.87;;;9.50;99.90;;;;;;5052963;28;20196;-76
2021/04/22 03:19:05;;;;;;;36.87;29.53;;;9.50;99.90;;;;;;5054280;28;20278;-75
2021/04/22 03:21:31;;;;;;;42.87;32.20;;;9.50;99.90;;;;;;5052255;28;20238;-75
2021/04/22 03:23:56;;;;;;;39.60;34.30;;;9.50;99.90;;;;;;5053159;28;20487;-76
2021/04/22 03:26:22;;;;;;;43.50;34.87;;;9.50;99.90;;;;;;5054154;28;20176;-75
2021/04/22 03:28:48;;;;;;;40.33;30.93;;;9.50;99.90;;;;;;5054135;28;20175;-76
2021/04/22 03:31:14;;;;;;;36.80;29.13;;;9.50;99.90;;;;;;5052832;28;20183;-76
2021/04/22 03:33:39;;;;;;;36.33;31.53;;;9.50;99.90;;;;;;5054250;28;20558;-76
2021/04/22 03:36:05;;;;;;;38.57;31.10;;;9.50;99.90;;;;;;5052824;28;20977;-76
2021/04/22 03:38:31;;;;;;;38.40;30.67;;;9.50;99.90;;;;;;5054019;28;20231;-76
2021/04/22 03:40:57;;;;;;;36.63;31.43;;;9.40;99.90;;;;;;5053939;28;20410;-76
2021/04/22 03:43:22;;;;;;;38.17;31.03;;;9.30;99.90;;;;;;5053881;28;20183;-76
2021/04/22 03:45:48;;;;;;;41.30;31.43;;;9.30;99.90;;;;;;5054058;28;20179;-76
2021/04/22 03:48:13;;;;;;;37.97;32.80;;;9.30;99.90;;;;;;5052770;28;20511;-75
2021/04/22 03:50:39;;;;;;;38.43;31.70;;;9.20;99.90;;;;;;5053873;28;20187;-75
2021/04/22 03:53:04;;;;;;;40.37;34.50;;;9.10;99.90;;;;;;5053644;28;20185;-75
2021/04/22 03:55:30;;;;;;;40.50;33.20;;;9.10;99.90;;;;;;5053382;28;20295;-76
2021/04/22 03:57:56;;;;;;;44.57;32.83;;;9.10;99.90;;;;;;5053555;28;20215;-76
2021/04/22 04:00:23;;;;;;;38.87;32.60;;;9.00;99.90;;;;;;5052322;28;20426;-75
2021/04/22 04:02:48;;;;;;;41.43;33.97;;;8.90;99.90;;;;;;5052359;28;20211;-75
2021/04/22 04:05:14;;;;;;;39.43;33.40;;;8.70;99.90;;;;;;5052317;28;20458;-75
2021/04/22 04:07:40;;;;;;;47.70;34.50;;;8.70;99.90;;;;;;5053420;28;20176;-76
2021/04/22 04:10:07;;;;;;;42.73;35.43;;;8.70;99.90;;;;;;5053395;28;20532;-75
2021/04/22 04:12:33;;;;;;;45.40;36.27;;;8.80;99.90;;;;;;5053675;28;20449;-76
2021/04/22 04:14:59;;;;;;;45.93;36.80;;;8.80;99.90;;;;;;5053541;28;20442;-76
2021/04/22 04:17:24;;;;;;;42.47;35.80;;;8.70;99.90;;;;;;5053273;28;20193;-75
2021/04/22 04:19:51;;;;;;;39.60;33.80;;;8.50;99.90;;;;;;5053408;28;20422;-75
2021/04/22 04:22:17;;;;;;;48.20;39.23;;;8.50;99.90;;;;;;5053047;28;20646;-75
2021/04/22 04:24:42;;;;;;;45.70;37.60;;;8.50;99.90;;;;;;5053051;28;20418;-75
2021/04/22 04:27:08;;;;;;;50.90;37.80;;;8.50;99.90;;;;;;5052997;28;20195;-76
2021/04/22 04:29:34;;;;;;;45.33;36.33;;;8.50;99.90;;;;;;5053020;28;20250;-75
2021/04/22 04:31:59;;;;;;;40.83;34.40;;;8.60;99.90;;;;;;5053100;28;20191;-76
2021/04/22 04:34:25;;;;;;;43.33;36.37;;;8.60;99.90;;;;;;5051535;28;20229;-74
2021/04/22 04:36:50;;;;;;;38.00;33.70;;;8.50;99.90;;;;;;5052514;28;20223;-75
2021/04/22 04:39:16;;;;;;;43.73;35.60;;;8.50;99.90;;;;;;5051520;28;20253;-76
2021/04/22 04:41:43;;;;;;;40.60;34.30;;;8.40;99.90;;;;;;5052729;28;20229;-76
2021/04/22 04:44:09;;;;;;;39.77;32.27;;;8.50;99.90;;;;;;5052606;28;20635;-75
2021/04/22 04:46:35;;;;;;;42.43;33.77;;;8.50;99.90;;;;;;5052215;28;20468;-76
2021/04/22 04:49:01;;;;;;;34.67;30.87;;;8.50;99.90;;;;;;5050570;28;20419;-76
2021/04/22 04:51:27;;;;;;;38.73;32.37;;;8.50;99.90;;;;;;5052119;28;20176;-73
2021/04/22 04:53:53;;;;;;;36.90;31.40;;;8.50;99.90;;;;;;5052535;28;20420;-76
2021/04/22 04:56:19;;;;;;;37.20;32.10;;;8.50;99.90;;;;;;5052095;28;20277;-76
2021/04/22 04:58:46;;;;;;;38.53;31.93;;;8.60;99.90;;;;;;5050686;28;20551;-77
2021/04/22 05:01:12;;;;;;;39.97;31.10;;;8.60;99.90;;;;;;5051989;28;20245;-75
2021/04/22 05:03:38;;;;;;;39.00;30.87;;;8.70;99.90;;;;;;5052115;28;20509;-75
2021/04/22 05:06:05;;;;;;;36.63;31.50;;;8.80;99.90;;;;;;5052118;28;20172;-75
2021/04/22 05:08:30;;;;;;;45.93;30.70;;;8.80;99.90;;;;;;5051946;28;20488;-75
2021/04/22 05:10:56;;;;;;;39.07;31.60;;;8.80;99.90;;;;;;5052197;28;20418;-75
2021/04/22 05:13:22;;;;;;;43.60;39.30;;;8.80;99.90;;;;;;5051401;28;20210;-76
2021/04/22 05:15:47;;;;;;;32.93;28.90;;;8.80;99.90;;;;;;5051599;28;20175;-75
2021/04/22 05:18:13;;;;;;;35.50;31.07;;;8.90;99.90;;;;;;5051352;28;20211;-75
2021/04/22 05:20:38;;;;;;;37.93;30.97;;;8.90;99.90;;;;;;5050410;28;20172;-76
2021/04/22 05:23:05;;;;;;;34.23;26.40;;;9.10;99.90;;;;;;5051631;28;20271;-75
2021/04/22 05:25:30;;;;;;;33.37;28.97;;;9.20;99.90;;;;;;5051583;28;20638;-76
2021/04/22 05:27:56;;;;;;;36.07;30.13;;;9.40;99.90;;;;;;5050447;28;20442;-75
2021/04/22 05:30:22;;;;;;;33.50;28.47;;;9.30;99.90;;;;;;5051123;28;20168;-75
2021/04/22 05:32:48;;;;;;;30.70;25.40;;;9.40;99.90;;;;;;5042382;28;20203;-74
2021/04/22 05:35:14;;;;;;;33.87;28.00;;;9.40;99.90;;;;;;5051122;28;21040;-74
2021/04/22 05:37:39;;;;;;;41.30;30.73;;;9.40;99.90;;;;;;5049154;28;20291;-74
2021/04/22 05:40:06;;;;;;;32.13;26.90;;;9.50;99.90;;;;;;5049119;28;20518;-75
2021/04/22 05:42:32;;;;;;;30.40;27.40;;;9.60;99.90;;;;;;5050803;28;20179;-74
2021/04/22 05:44:57;;;;;;;29.03;26.13;;;9.80;99.90;;;;;;5050686;28;20948;-76
2021/04/22 05:47:23;;;;;;;31.23;26.70;;;9.80;99.90;;;;;;5045617;28;20204;-76
2021/04/22 05:49:49;;;;;;;29.33;25.23;;;9.90;99.90;;;;;;5029617;28;20423;-75
2021/04/22 05:52:14;;;;;;;30.37;26.53;;;10.00;99.90;;;;;;5060987;28;20692;-75
2021/04/22 05:54:40;;;;;;;29.77;25.63;;;10.00;99.90;;;;;;5069400;28;20546;-75
2021/04/22 05:57:06;;;;;;;29.73;25.87;;;9.80;99.90;;;;;;5069071;28;20712;-77
2021/04/22 05:59:32;;;;;;;32.40;27.73;;;9.90;99.90;;;;;;5070459;28;20661;-75
2021/04/22 06:01:57;;;;;;;29.50;24.77;;;9.90;99.90;;;;;;5058218;28;20176;-75
2021/04/22 06:04:23;;;;;;;26.90;23.37;;;9.70;99.90;;;;;;5050833;28;20200;-77
2021/04/22 06:06:48;;;;;;;26.50;23.67;;;9.90;99.90;;;;;;5050462;28;20182;-75
2021/04/22 06:09:14;;;;;;;27.63;24.63;;;10.20;99.90;;;;;;5021515;28;20241;-75
2021/04/22 06:11:41;;;;;;;26.97;24.27;;;10.40;99.90;;;;;;5048230;28;20267;-72
2021/04/22 06:14:06;;;;;;;26.07;23.37;;;10.20;99.90;;;;;;5050555;28;20210;-75
2021/04/22 06:16:32;;;;;;;27.03;23.57;;;10.10;99.90;;;;;;5062846;28;21019;-75
2021/04/22 06:18:57;;;;;;;28.00;25.07;;;10.10;99.90;;;;;;5070744;28;20262;-75
2021/04/22 06:21:23;;;;;;;24.83;22.30;;;10.00;99.90;;;;;;5070230;28;20175;-75
2021/04/22 06:23:49;;;;;;;25.77;22.60;;;10.30;99.90;;;;;;5069483;28;20233;-76
2021/04/22 06:26:14;;;;;;;26.80;21.87;;;10.20;99.90;;;;;;5070742;28;20708;-76
2021/04/22 06:28:40;;;;;;;27.00;21.73;;;10.10;99.90;;;;;;5058341;28;20184;-75
2021/04/22 06:31:05;;;;;;;25.67;22.70;;;10.10;99.90;;;;;;5050482;28;20302;-75
2021/04/22 06:33:31;;;;;;;24.90;22.23;;;10.10;99.90;;;;;;5050630;28;20176;-75
2021/04/22 06:35:57;;;;;;;27.27;22.97;;;10.00;99.90;;;;;;5048643;28;20308;-76
2021/04/22 06:38:22;;;;;;;25.33;22.83;;;9.90;99.90;;;;;;5050212;28;20706;-75
2021/04/22 06:40:48;;;;;;;22.17;19.37;;;10.30;99.90;;;;;;5052769;28;20211;-76
2021/04/22 06:43:15;;;;;;;24.80;21.17;;;10.60;99.90;;;;;;5055177;28;20184;-75
2021/04/22 06:45:42;;;;;;;21.50;19.23;;;11.00;99.90;;;;;;5053440;28;20555;-76
2021/04/22 06:48:13;;;;;;;21.03;18.40;;;11.30;99.90;;;;;;5054950;28;20564;-75
2021/04/22 06:50:39;;;;;;;20.07;18.07;;;11.60;99.90;;;;;;5055147;28;20838;-76
2021/04/22 06:53:05;;;;;;;24.63;22.13;;;11.80;99.90;;;;;;5054609;28;20437;-75
2021/04/22 06:55:31;;;;;;;19.67;16.40;;;11.90;99.90;;;;;;5054779;28;20906;-73
2021/04/22 06:57:59;;;;;;;24.33;19.83;;;11.90;99.90;;;;;;5055302;28;20303;-75
2021/04/22 07:00:27;;;;;;;19.00;17.10;;;11.70;99.90;;;;;;5053352;28;20941;-76
2021/04/22 07:02:53;;;;;;;20.97;18.60;;;12.30;99.90;;;;;;5054954;28;20835;-75
2021/04/22 07:05:19;;;;;;;18.37;16.67;;;12.20;99.90;;;;;;5055050;28;20508;-75
2021/04/22 07:07:45;;;;;;;18.63;16.10;;;11.80;99.90;;;;;;5053284;28;20542;-73
2021/04/22 07:10:12;;;;;;;17.00;15.50;;;11.50;99.90;;;;;;5053973;28;20410;-75
2021/04/22 07:12:38;;;;;;;16.90;12.73;;;11.40;99.90;;;;;;5055265;28;20418;-75
2021/04/22 07:15:05;;;;;;;19.23;15.77;;;11.30;99.90;;;;;;5054857;28;20406;-76
2021/04/22 07:17:31;;;;;;;17.40;14.70;;;12.10;99.90;;;;;;5054174;28;20227;-76
2021/04/22 07:20:00;;;;;;;14.37;11.70;;;12.70;99.90;;;;;;5054702;28;20929;-75
2021/04/22 07:22:26;;;;;;;14.60;12.57;;;12.50;59.20;;;;;;5053228;28;20171;-76
2021/04/22 07:24:55;;;;;;;14.30;12.83;;;12.60;66.10;;;;;;5053356;28;20480;-75
2021/04/22 07:27:20;;;;;;;14.83;12.90;;;12.60;51.80;;;;;;5054340;28;20180;-76
2021/04/22 07:29:47;;;;;;;19.10;14.10;;;12.50;49.80;;;;;;5054552;28;20437;-76
2021/04/22 07:32:14;;;;;;;13.87;12.40;;;12.20;50.80;;;;;;5054356;28;20183;-76
2021/04/22 07:34:40;;;;;;;16.00;13.17;;;12.00;66.80;;;;;;5054833;28;20419;-75
2021/04/22 07:37:07;;;;;;;15.23;13.77;;;11.70;70.70;;;;;;5053028;28;20539;-76
2021/04/22 07:39:33;;;;;;;16.20;14.50;;;11.30;85.70;;;;;;5036165;28;20422;-75
2021/04/22 07:41:59;;;;;;;15.90;14.20;;;11.10;98.90;;;;;;5053053;28;20449;-76
2021/04/22 07:44:25;;;;;;;17.20;14.50;;;10.80;99.90;;;;;;5053018;28;20184;-76
2021/04/22 07:46:51;;;;;;;19.33;13.50;;;10.60;99.90;;;;;;5053033;28;20480;-76
2021/04/22 07:49:17;;;;;;;19.70;13.40;;;10.60;99.90;;;;;;5054301;28;20426;-76
2021/04/22 07:51:43;;;;;;;15.13;13.60;;;10.50;99.90;;;;;;5054790;28;20421;-76
2021/04/22 07:54:09;;;;;;;17.70;13.93;;;10.60;99.90;;;;;;5053962;28;20416;-75
2021/04/22 07:56:35;;;;;;;13.20;11.80;;;10.50;99.90;;;;;;5052760;28;20180;-74
2021/04/22 07:59:00;;;;;;;14.00;12.50;;;10.90;99.90;;;;;;5053622;28;20227;-76
2021/04/22 08:01:27;;;;;;;15.67;13.93;;;11.10;99.90;;;;;;5053794;28;20171;-76
2021/04/22 08:03:53;;;;;;;17.13;13.47;;;11.10;99.90;;;;;;5054021;28;20176;-76
2021/04/22 08:06:18;;;;;;;15.10;12.90;;;11.10;99.30;;;;;;5053935;28;20766;-76
2021/04/22 08:08:44;;;;;;;12.87;11.57;;;11.00;93.70;;;;;;5052226;28;20187;-75
2021/04/22 08:11:11;;;;;;;20.83;12.37;;;11.10;92.60;;;;;;5052842;28;20418;-76
2021/04/22 08:13:37;;;;;;;13.80;10.60;;;11.20;78.40;;;;;;5053628;28;20930;-76
2021/04/22 08:16:04;;;;;;;13.80;11.20;;;11.20;72.00;;;;;;5053644;28;20430;-74
2021/04/22 08:18:30;;;;;;;16.13;12.07;;;11.80;66.40;;;;;;5053072;28;20977;-75
2021/04/22 08:20:57;;;;;;;11.80;10.70;;;11.90;31.60;;;;;;5053588;28;20449;-76
2021/04/22 08:23:28;;;;;;;14.90;11.80;;;12.40;6.60;;;;;;5053340;28;20432;-76
2021/04/22 08:25:56;;;;;;;11.87;10.60;;;13.00;1.00;;;;;;5052216;28;20422;-75
2021/04/22 08:28:23;;;;;;;12.73;10.67;;;12.70;1.00;;;;;;5052054;28;20418;-76
2021/04/22 08:30:56;;;;;;;12.60;11.10;;;12.60;1.00;;;;;;5053437;28;20851;-75
2021/04/22 08:33:25;;;;;;;17.57;10.90;;;12.70;1.00;;;;;;5052854;28;20418;-74
2021/04/22 08:35:51;;;;;;;13.70;10.63;;;13.50;1.00;;;;;;5053140;28;20484;-76
2021/04/22 08:38:17;;;;;;;16.03;9.90;;;13.90;99.90;;;;;;5053323;28;20470;-77
2021/04/22 08:40:43;;;;;;;11.40;9.90;;;13.50;99.90;;;;;;5053013;28;20419;-76
2021/04/22 08:43:10;;;;;;;57.37;20.53;;;13.10;1.00;;;;;;5052956;28;20208;-75
2021/04/22 08:45:37;;;;;;;12.37;10.27;;;13.60;99.90;;;;;;5052951;28;20497;-75
2021/04/22 08:48:03;;;;;;;18.10;11.13;;;14.80;99.90;;;;;;5051598;28;20434;-75
2021/04/22 08:50:31;;;;;;;12.10;10.47;;;15.10;99.90;;;;;;5053122;28;20778;-75
2021/04/22 08:53:00;;;;;;;15.10;9.30;;;15.20;1.00;;;;;;5051245;28;20914;-76
2021/04/22 08:55:30;;;;;;;12.37;10.07;;;15.60;99.90;;;;;;5051479;28;20510;-76
2021/04/22 08:57:59;;;;;;;11.07;9.93;;;15.50;99.90;;;;;;5052515;28;20544;-76
2021/04/22 09:00:27;;;;;;;10.17;9.27;;;15.50;99.90;;;;;;5053096;28;20406;-76
2021/04/22 09:02:53;;;;;;;9.60;8.70;;;15.50;99.90;;;;;;5051955;28;21098;-76
2021/04/22 09:05:19;;;;;;;12.80;10.50;;;16.50;1.00;;;;;;5052274;28;20501;-77
2021/04/22 09:07:45;;;;;;;11.17;9.10;;;16.90;1.00;;;;;;5052746;28;20430;-76
2021/04/22 09:10:14;;;;;;;13.30;9.63;;;17.10;1.00;;;;;;5052236;28;20430;-76
2021/04/22 09:12:39;;;;;;;11.67;10.57;;;16.10;1.00;;;;;;5052106;28;20199;-76
2021/04/22 09:15:11;;;;;;;15.23;11.13;;;17.10;1.00;;;;;;5051301;28;20414;-75
2021/04/22 09:17:37;;;;;;;10.63;8.87;;;16.60;1.00;;;;;;5051226;28;20290;-76
2021/04/22 09:20:05;;;;;;;17.73;10.00;;;17.20;1.00;;;;;;5052560;28;20417;-75
2021/04/22 09:22:40;;;;;;;18.90;10.53;;;17.50;1.00;;;;;;5052354;28;20419;-76
2021/04/22 09:25:18;;;;;;;9.43;8.63;;;18.20;1.00;;;;;;5051929;28;20416;-76
2021/04/22 09:27:44;;;;;;;12.83;9.07;;;17.90;1.00;;;;;;5052351;28;20417;-74
2021/04/22 09:30:14;;;;;;;14.23;9.93;;;17.60;1.00;;;;;;5051591;28;20498;-76
2021/04/22 09:32:39;;;;;;;14.10;9.70;;;17.00;1.00;;;;;;5050106;28;20565;-76
2021/04/22 09:35:14;;;;;;;11.90;9.40;;;17.00;1.00;;;;;;5051126;28;20477;-76
2021/04/22 09:37:42;;;;;;;11.60;9.73;;;17.50;1.00;;;;;;5050703;28;20244;-76
2021/04/22 09:40:33;;;;;;;10.30;9.30;;;18.00;1.00;;;;;;5051335;28;20416;-76
2021/04/22 09:43:02;;;;;;;10.73;9.73;;;17.70;99.90;;;;;;5051401;28;20399;-76
2021/04/22 09:45:29;;;;;;;23.20;11.20;;;18.40;99.90;;;;;;5050938;28;20411;-76
2021/04/22 09:47:56;;;;;;;45.77;12.00;;;17.90;1.00;;;;;;5051010;28;20402;-75
2021/04/22 09:50:26;;;;;;;8.50;7.80;;;18.70;99.90;;;;;;5050784;28;20419;-75
2021/04/22 09:52:55;;;;;;;9.90;8.90;;;19.10;99.90;;;;;;5049519;28;20814;-75
2021/04/22 09:55:24;;;;;;;10.47;8.93;;;19.60;99.90;;;;;;5050986;28;20431;-76
2021/04/22 09:57:51;;;;;;;10.63;9.63;;;18.90;99.90;;;;;;5052012;28;20811;-75
2021/04/22 10:00:28;;;;;;;10.23;9.23;;;18.20;99.90;;;;;;5053218;28;20426;-76
2021/04/22 10:06:16;;;;;;;10.90;9.80;;;18.40;99.90;;;;;;5049941;28;20413;-74
2021/04/22 10:08:44;;;;;;;48.73;13.97;;;17.20;99.90;;;;;;5050850;28;20773;-74
2021/04/22 10:11:10;;;;;;;11.37;9.80;;;17.30;1.00;;;;;;5049797;28;20763;-74
2021/04/22 10:13:45;;;;;;;11.20;9.70;;;18.00;99.90;;;;;;5049236;28;20945;-75
2021/04/22 10:16:11;;;;;;;12.13;9.67;;;18.20;99.90;;;;;;5052146;28;20425;-75
2021/04/22 10:18:39;;;;;;;10.13;8.93;;;18.00;99.90;;;;;;5054727;28;21034;-76
2021/04/22 10:21:05;;;;;;;9.03;8.27;;;19.10;99.90;;;;;;5054998;28;20184;-76
2021/04/22 10:23:31;;;;;;;10.70;8.20;;;19.80;99.90;;;;;;5054957;28;20488;-76
2021/04/22 10:25:57;;;;;;;9.03;8.23;;;18.80;99.90;;;;;;5054916;28;20414;-75
2021/04/22 10:28:24;;;;;;;10.40;8.53;;;17.60;99.90;;;;;;5054879;28;20913;-75
2021/04/22 10:30:52;;;;;;;9.67;8.67;;;18.50;99.90;;;;;;5054581;28;20789;-75
2021/04/22 10:33:19;;;;;;;11.03;8.10;;;19.00;99.90;;;;;;5054413;28;20426;-75
2021/04/22 10:35:46;;;;;;;9.40;7.37;;;19.60;99.90;;;;;;5054251;28;20993;-74
2021/04/22 10:38:13;;;;;;;8.03;7.33;;;19.20;99.90;;;;;;5054747;28;20509;-75
2021/04/22 10:40:51;;;;;;;8.87;7.60;;;18.70;99.90;;;;;;5054445;28;20414;-75
2021/04/22 10:43:20;;;;;;;7.10;6.40;;;18.00;99.90;;;;;;5054577;28;20434;-75
2021/04/22 10:45:45;;;;;;;7.10;6.50;;;18.30;99.90;;;;;;5054220;28;20426;-75
2021/04/22 10:48:11;;;;;;;7.90;7.17;;;18.40;99.90;;;;;;5054570;28;20427;-75
2021/04/22 10:50:40;;;;;;;8.70;6.97;;;19.40;99.90;;;;;;5054547;28;20180;-75
2021/04/22 10:53:12;;;;;;;10.13;6.50;;;19.30;99.90;;;;;;5054550;28;20183;-75
2021/04/22 10:55:41;;;;;;;7.97;6.90;;;19.00;99.90;;;;;;5055579;28;20765;-75
2021/04/22 10:58:17;;;;;;;6.20;5.53;;;18.90;99.90;;;;;;5057635;28;20462;-75
2021/04/22 11:00:53;;;;;;;19.30;7.37;;;19.20;99.90;;;;;;5054960;28;20518;-74
2021/04/22 11:03:32;;;;;;;7.10;6.40;;;18.60;99.90;;;;;;5054700;28;20777;-75
2021/04/22 11:06:21;;;;;;;8.03;5.93;;;17.90;99.90;;;;;;5055107;28;20417;-77
2021/04/22 11:08:50;;;;;;;6.20;5.60;;;19.00;99.90;;;;;;5054837;28;20429;-76
2021/04/22 11:11:24;;;;;;;6.57;5.97;;;19.00;99.90;;;;;;5054531;28;20410;-74
2021/04/22 11:14:02;;;;;;;11.77;6.60;;;19.40;99.90;;;;;;5053608;28;20509;-77
2021/04/22 11:16:30;;;;;;;5.33;4.83;;;18.90;99.90;;;;;;5054730;28;20410;-74
2021/04/22 11:18:55;;;;;;;7.67;5.07;;;19.40;99.90;;;;;;5054523;28;20841;-75
2021/04/22 11:21:31;;;;;;;6.27;5.23;;;19.00;99.90;;;;;;5054550;28;20410;-75
2021/04/22 11:23:59;;;;;;;6.53;5.80;;;18.90;99.90;;;;;;5054061;28;20175;-75
2021/04/22 11:26:36;;;;;;;5.80;5.30;;;18.80;99.90;;;;;;5053422;28;20411;-75
2021/04/22 11:29:13;;;;;;;5.93;5.33;;;18.50;99.90;;;;;;5053298;28;20456;-76
2021/04/22 11:31:51;;;;;;;5.50;4.93;;;17.50;99.90;;;;;;5053836;28;20974;-74
2021/04/22 11:34:17;;;;;;;5.43;4.73;;;16.80;99.90;;;;;;5053643;28;20781;-74
2021/04/22 11:36:51;;;;;;;6.50;5.17;;;16.70;99.90;;;;;;5053235;28;20454;-75
2021/04/22 11:39:17;;;;;;;6.70;4.83;;;17.00;99.90;;;;;;5053848;28;20434;-75
2021/04/22 11:41:59;;;;;;;5.20;4.13;;;16.70;99.90;;;;;;5051772;28;20453;-74
2021/04/22 11:44:37;;;;;;;8.37;4.87;;;16.40;99.90;;;;;;5052508;28;20489;-75
2021/04/22 11:47:15;;;;;;;3.90;3.60;;;16.50;99.90;;;;;;5051472;28;20773;-75
2021/04/22 11:49:41;;;;;;;4.93;3.83;;;16.60;99.90;;;;;;5051597;28;20564;-75
2021/04/22 11:52:18;;;;;;;13.00;10.57;;;16.30;99.90;;;;;;5053614;28;20414;-76
2021/04/22 11:54:44;;;;;;;5.83;3.97;;;16.50;99.90;;;;;;5052279;28;20419;-75
2021/04/22 11:57:10;;;;;;;4.83;2.80;;;16.50;99.90;;;;;;5053865;28;20477;-75
2021/04/22 11:59:36;;;;;;;4.10;3.60;;;16.10;99.90;;;;;;5054483;28;20179;-76
2021/04/22 12:02:08;;;;;;;5.60;3.73;;;16.10;99.90;;;;;;5054067;28;20418;-75
2021/04/22 12:04:36;;;;;;;3.53;2.63;;;16.00;99.90;;;;;;5053268;28;20260;-75
2021/04/22 12:07:08;;;;;;;8.80;3.07;;;16.50;99.90;;;;;;5053500;28;20906;-75
2021/04/22 12:09:34;;;;;;;4.50;3.13;;;16.50;99.90;;;;;;5053541;28;20417;-75
2021/04/22 12:12:11;;;;;;;6.80;4.60;;;16.20;99.90;;;;;;5053401;28;20448;-75
2021/04/22 12:14:37;;;;;;;4.80;3.37;;;16.40;99.90;;;;;;5052144;28;20658;-76
2021/04/22 12:17:03;;;;;;;7.13;2.80;;;16.40;99.90;;;;;;5051605;28;20429;-75
2021/04/22 12:19:30;;;;;;;5.17;4.67;;;16.60;99.90;;;;;;5053151;28;20506;-75
2021/04/22 12:22:01;;;;;;;4.50;3.07;;;16.30;99.90;;;;;;5051999;28;20443;-75
2021/04/22 12:24:28;;;;;;;12.70;4.30;;;16.30;99.90;;;;;;5051944;28;20418;-74
2021/04/22 12:26:53;;;;;;;8.23;3.80;;;16.20;99.90;;;;;;5053594;28;20504;-74
2021/04/22 12:29:20;;;;;;;6.10;3.40;;;16.40;99.90;;;;;;5052791;28;20465;-74
2021/04/22 12:32:14;;;;;;;4.13;3.37;;;16.60;99.90;;;;;;5051658;28;20176;-76
2021/04/22 12:34:39;;;;;;;6.53;3.80;;;16.40;99.90;;;;;;5051379;28;20894;-76
2021/04/22 12:37:14;;;;;;;9.00;3.70;;;16.20;99.90;;;;;;5051566;28;20521;-75
2021/04/22 12:39:49;;;;;;;5.90;3.63;;;16.10;99.90;;;;;;5052664;28;20176;-75